CheckWX is a tool to help pilots better visualize weather data.  It is not intended as a substitute for an official pre-flight weather briefing.

05:21:15 UTC

GCRR METAR
Lanzarote Airport
Lanzarote Island, Spain
Current

21 mins ago

GCRR 200500Z AUTO 36004KT CAVOK 16/12 Q1018
Observed
Feb-20 @ 05:00 UTC
Wind
  • 360° at 4 KTS
Visibility
10,000+ meters
Flight Rules
VFR
Cloud Levels
  • Clear skies
Temperature
16°C / 61°F
Dewpoint
12°C / 54°F
Humidity
77%
Altimeter
30.06" Hg
Pressure
1017.92 hPa
Previous

51 mins ago

GCRR 200430Z AUTO 33004KT 300V360 CAVOK 16/12 Q1018
Observed
Feb-20 @ 04:30 UTC
Wind
  • 330° at 4 KTS
Visibility
10,000+ meters
Flight Rules
VFR
Cloud Levels
  • Clear skies
Temperature
16°C / 61°F
Dewpoint
12°C / 54°F
Humidity
77%
Altimeter
30.06" Hg
Pressure
1017.92 hPa
Previous

1 hour ago

GCRR 200400Z AUTO 35006KT 9999 SCT043 16/13 Q1018
Observed
Feb-20 @ 04:00 UTC
Wind
  • 350° at 6 KTS
Visibility
10,000+ meters
Flight Rules
VFR
Cloud Levels
  • Scattered at 4,300' AGL
Temperature
16°C / 61°F
Dewpoint
13°C / 55°F
Humidity
83%
Altimeter
30.06" Hg
Pressure
1017.92 hPa